• Join FlightAware (Why Join?)
  • Login
  • US Flag 
01:03PM EST


 

Airport Tracker/Info


-or-


 

Live Flight TrackerFlight Track Log ✈ UAL395 ✈ 06-May-2013 ✈ KIAH - KLAS

Flight Track Log - Related Links

Times and Time Zones

All times are in EDT time to prevent confusion due to time zone crossing. See the UAL395 flight status page for this flight to view local times or setup timezone preferences in your user account.

Time Position Orientation Groundspeed Altitude Reporting Facility
EDT Latitude Longitude Course Direction KTS MPH feet Rate Location/Type
08:30AM 29.9572 -95.3417 276° West 164 189 1,000  Level Houston Center
08:32AM 29.9536 -95.4169 267° West 223 257 3,400 2,160 Climbing Houston Center
08:32AM 29.9647 -95.4797 282° West 240 276 5,700 2,760 Climbing Houston Center
08:33AM 30.0229 -95.6958 277° West  Level FlightAware Approximate
08:34AM 30.0348 -95.8175 276° West  Level FlightAware Approximate
08:35AM 30.0450 -95.9394 276° West  Level FlightAware Approximate
08:35AM 30.0234 -95.7002 277° West  Level FlightAware Approximate
08:36AM 30.0674 -96.0580 276° West  Level FlightAware Approximate
08:36AM 30.0156 -95.7564 277° West 316 364 14,200  Level Houston Center
08:37AM 30.0344 -95.8617 282° West 335 386 17,800 3,000 Climbing Houston Center
08:38AM 30.0556 -95.9772 282° West 370 426 20,500 2,520 Climbing Houston Center
08:39AM 30.0792 -96.1106 282° West 380 437 23,000 1,800 Climbing Houston Center
08:41AM 30.1161 -96.3589 280° West 397 457 26,100 1,500 Climbing Houston Center
08:42AM 30.1367 -96.4944 280° West 402 463 27,800 1,320 Climbing Houston Center
08:44AM 30.1764 -96.7539 280° West 408 470 30,300 1,260 Climbing Houston Center
08:45AM 30.1953 -96.8833 280° West 405 466 31,700 1,260 Climbing Houston Center
08:46AM 30.2147 -97.0117 280° West 400 460 33,000 1,500 Climbing Houston Center
08:47AM 30.2361 -97.1600 280° West 397 457 34,800 1,260 Climbing Houston Center
08:48AM 30.2539 -97.2817 280° West 383 441 35,600 540 Climbing Houston Center
08:49AM 30.2719 -97.4033 280° West 380 437 36,000 180 Climbing Houston Center
08:50AM 30.2889 -97.5258 279° West 379 436 36,000  Level Houston Center
08:52AM 30.3317 -97.7692 282° West 379 436 36,000  Level Houston Center
08:53AM 30.3928 -97.8742 304° West 386 444 36,000  Level Houston Center
08:55AM 30.5136 -98.0817 304° West 383 441 36,000  Level Houston Center
08:56AM 30.5756 -98.1869 304° West 388 447 36,000  Level Houston Center
08:57AM 30.6356 -98.2917 304° West 386 444 36,000  Level Houston Center
08:59AM 30.7306 -98.4279 300° West  Level FlightAware Approximate
08:59AM 30.7675 -98.5189 300° West 385 443 36,000  Level Houston Center
09:00AM 30.8292 -98.6244 304° West 389 448 36,000  Level Houston Center
09:01AM 30.8872 -98.7286 303° West 382 440 36,000  Level Houston Center
09:04AM 31.0467 -99.0064 304° West 384 442 36,000  Level Fort Worth Center
09:04AM 31.0675 -99.0433 303° West 386 444 36,000  Level Houston Center
09:05AM 31.1269 -99.1494 303° West 387 445 36,000  Level Houston Center
09:08AM 31.2808 -99.4211 304° West 390 449 36,000  Level Fort Worth Center
09:08AM 31.3114 -99.4778 302° West 382 440 36,000 -120 Level Houston Center
09:09AM 31.3694 -99.5822 303° West 383 441 35,900 -60 Descending Houston Center
09:11AM 31.4267 -99.6833 304° West 377 434 35,900 60 Level Houston Center
09:11AM 31.4486 -99.7317 298° West 386 444 36,000 60 Climbing Fort Worth Center
09:12AM 31.5133 -99.8453 304° West 386 444 36,000  Level Fort Worth Center
09:13AM 31.5697 -99.9467 303° West 386 444 36,000 -60 Level Fort Worth Center
09:14AM 31.6261 -100.0483 303° West 386 444 35,900  Descending Fort Worth Center
09:15AM 31.6864 -100.1600 302° West 386 444 36,000  Climbing Fort Worth Center
09:16AM 31.7447 -100.2642 303° West 386 444 36,000  Level Fort Worth Center
09:18AM 31.8628 -100.4806 303° West 392 451 36,000  Level Fort Worth Center
09:20AM 31.9594 -100.6483 304° West 381 438 36,000  Level Albuquerque Center
09:20AM 31.9783 -100.6928 297° West 392 451 36,000  Level Fort Worth Center
09:21AM 32.0381 -100.8003 303° West 392 451 36,000  Level Fort Worth Center
09:23AM 32.1422 -100.9869 303° West 392 451 36,000  Level Albuquerque Center
09:24AM 32.2147 -101.1283 301° West 398 458 36,000  Level Fort Worth Center
09:25AM 32.2761 -101.2392 303° West 403 464 36,000  Level Fort Worth Center
09:27AM 32.3783 -101.4311 302° West 403 464 36,000 60 Level Albuquerque Center
09:28AM 32.4514 -101.5714 302° West 397 457 36,300 360 Climbing Fort Worth Center
09:30AM 32.5581 -101.7697 303° West 411 473 37,200 480 Climbing Albuquerque Center
09:31AM 32.6336 -101.9153 302° West 409 471 37,800 360 Climbing Fort Worth Center
09:32AM 32.6939 -102.0319 302° West 414 476 38,000 60 Climbing Fort Worth Center
09:34AM 32.8017 -102.2333 303° West 406 467 38,000  Level Albuquerque Center
09:35AM 32.8617 -102.3503 301° West 408 470 38,000  Level Albuquerque Center
09:36AM 32.9331 -102.4897 301° West 419 482 38,000  Level Fort Worth Center
09:37AM 32.9911 -102.5994 302° West 414 476 38,000  Level Fort Worth Center
09:38AM 33.0531 -102.7144 303° West 419 482 38,000  Level Fort Worth Center
09:39AM 33.1128 -102.8347 301° West 419 482 38,000  Level Fort Worth Center
09:40AM 33.1722 -102.9500 302° West 419 482 38,000  Level Fort Worth Center
09:42AM 33.2972 -103.2014 301° West 413 475 38,000  Level Albuquerque Center
09:43AM 33.3561 -103.3183 301° West 413 475 38,000  Level Albuquerque Center
09:44AM 33.4167 -103.4364 302° West 416 479 38,000  Level Albuquerque Center
09:46AM 33.4955 -103.5912 301° West  Level FlightAware Approximate
09:48AM 33.6608 -103.9222 301° West 413 475 38,000  Level Albuquerque Center
09:49AM 33.7189 -104.0400 301° West 413 475 38,000  Level Albuquerque Center
09:50AM 33.7775 -104.1600 300° West 417 480 38,000  Level Albuquerque Center
09:51AM 33.8414 -104.2881 301° West 416 479 38,000  Level Albuquerque Center
09:52AM 33.8994 -104.4069 300° West 414 476 38,000  Level Albuquerque Center
09:53AM 33.8724 -104.3433 301° West  Level FlightAware Approximate
09:53AM 33.9583 -104.5272 301° West 418 481 38,000  Level Albuquerque Center
09:54AM 33.9259 -104.4512 301° West  Level FlightAware Approximate
09:54AM 34.0189 -104.6508 301° West 422 486 38,000  Level Albuquerque Center
09:55AM 34.0800 -104.7739 301° West 423 487 38,000  Level Albuquerque Center
09:56AM 34.1406 -104.8989 300° West 425 489 38,000  Level Albuquerque Center
09:57AM 34.2008 -105.0247 300° West 426 490 38,000  Level Albuquerque Center
09:58AM 34.2622 -105.1511 300° West 429 494 38,000  Level Albuquerque Center
09:59AM 34.3228 -105.2775 300° West 430 495 38,000  Level Albuquerque Center
10:00AM 34.3836 -105.4025 301° West 428 493 38,000  Level Albuquerque Center
10:01AM 34.4433 -105.5286 300° West 427 491 38,000  Level Albuquerque Center
10:02AM 34.5036 -105.6544 300° West 427 491 38,000  Level Albuquerque Center
10:03AM 34.5642 -105.7808 300° West 427 491 38,000  Level Albuquerque Center
10:05AM 34.6833 -106.0339 300° West 427 491 38,000  Level Albuquerque Center
10:06AM 34.7417 -106.1614 299° West 427 491 38,000  Level Albuquerque Center
10:08AM 34.7968 -106.2781 300° West  Level FlightAware Approximate
10:09AM 34.8617 -106.4183 300° West 424 488 38,000  Level Albuquerque Center
10:10AM 34.9261 -106.5606 299° West 426 490 38,000  Level Albuquerque Center
10:12AM 35.0333 -106.7992 299° West 421 484 38,000  Level Albuquerque Center
10:13AM 35.0736 -106.9478 288° West 412 474 38,000  Level Albuquerque Center
10:14AM 35.1022 -107.0806 285° West 419 482 38,000  Level Albuquerque Center
10:16AM 35.1450 -107.3592 281° West 422 486 38,000  Level Albuquerque Center
10:18AM 35.1553 -107.6015 277° West  Level FlightAware Approximate
10:19AM 35.1903 -107.8053 277° West 426 490 38,000  Level Albuquerque Center
10:21AM 35.2117 -108.0346 277° West  Level FlightAware Approximate
10:23AM 35.2486 -108.4019 276° West 426 490 38,000  Level Albuquerque Center
10:24AM 35.2617 -108.5392 277° West 425 489 38,000  Level Albuquerque Center
10:25AM 35.2775 -108.6981 277° West 421 484 38,000  Level Albuquerque Center
10:26AM 35.2900 -108.8364 276° West 424 488 38,000  Level Albuquerque Center
10:28AM 35.2937 -108.9620 276° West  Level FlightAware Approximate
10:28AM 35.3059 -109.0399 276° West  Level FlightAware Approximate
10:29AM 35.3297 -109.2758 275° West 426 490 38,000  Level Albuquerque Center
10:30AM 35.3436 -109.4367 276° West 423 487 38,000  Level Albuquerque Center
10:31AM 35.3550 -109.5736 276° West 422 486 38,000  Level Albuquerque Center
10:32AM 35.3694 -109.7350 276° West 425 489 38,000  Level Albuquerque Center
10:33AM 35.3800 -109.8742 275° West 426 490 38,000  Level Albuquerque Center
10:34AM 35.3919 -110.0333 275° West 422 486 38,000  Level Albuquerque Center
10:35AM 35.3745 -109.9700 275° West  Level FlightAware Approximate
10:35AM 35.4028 -110.1689 276° West 420 483 38,000  Level Albuquerque Center
10:37AM 35.4206 -110.4131 275° West 422 486 38,000 -180 Level Los Angeles Center
10:38AM 35.4342 -110.6011 275° West 422 486 37,500 -540 Descending Albuquerque Center
10:40AM 35.4536 -110.8386 276° West 421 484 36,500 -600 Descending Los Angeles Center
10:40AM 35.4569 -110.8961 274° West 420 483 36,300 -360 Descending Albuquerque Center
10:41AM 35.4689 -111.0533 275° West 415 478 36,000 -1,260 Descending Albuquerque Center
10:43AM 35.4906 -111.3550 275° West 430 495 32,500 -1,980 Descending Albuquerque Center
10:45AM 35.5000 -111.5017 275° West 451 519 30,000 -960 Descending Albuquerque Center
10:46AM 35.5167 -111.7322 275° West 427 491 30,000  Level Los Angeles Center
10:47AM 35.5250 -111.8750 274° West 422 486 30,000  Level Los Angeles Center
10:48AM 35.5289 -111.9331 275° West 424 488 30,000 -540 Level Albuquerque Center
10:49AM 35.5383 -112.0750 275° West 423 487 29,300 -1,140 Descending Albuquerque Center
10:49AM 35.5458 -112.1839 275° West 410 472 28,200 -1,680 Descending Los Angeles Center
10:50AM 35.5492 -112.2375 274° West 405 466 27,600 -1,500 Descending Albuquerque Center
10:51AM 35.5575 -112.3706 274° West 398 458 26,100 -1,380 Descending Albuquerque Center
10:51AM 35.5633 -112.4500 275° West 390 449 25,400 -1,080 Descending Los Angeles Center
10:53AM 35.5789 -112.7158 274° West 375 432 23,300 -1,020 Descending Los Angeles Center
10:54AM 35.5861 -112.8417 274° West 369 425 22,400 -960 Descending Los Angeles Center
10:55AM 35.5933 -112.9647 274° West 364 419 21,400 -900 Descending Los Angeles Center
10:56AM 35.5978 -113.0622 273° West 357 411 20,600 -720 Descending Los Angeles Center
10:57AM 35.6083 -113.2319 274° West 354 407 20,000 -300 Descending Los Angeles Center
10:59AM 35.6136 -113.3367 274° West 359 413 20,000  Level Los Angeles Center
11:00AM 35.6219 -113.4831 274° West 359 413 20,000 -480 Level Los Angeles Center
11:02AM 35.6522 -113.7281 279° West 364 419 18,700 -780 Descending Los Angeles Center
11:03AM 35.6689 -113.8483 280° West 360 414 17,600 -1,020 Descending Los Angeles Center
11:05AM 35.7011 -114.0783 280° West 344 396 15,700 -1,020 Descending Los Angeles Center
11:05AM 35.7053 -114.1233 277° West 337 388 15,300 -1,560 Descending Los Angeles Center
11:06AM 35.7200 -114.2131 281° West 338 389 14,100 -1,860 Descending Los Angeles Center
11:06AM 35.7306 -114.2819 281° West 341 392 12,900 -1,440 Descending Los Angeles Center
11:08AM 35.7795 -114.3987 345° North  Level FlightAware Approximate
11:08AM 35.8214 -114.4450 345° North 307 353 10,400  Level Los Angeles Center
11:09AM 35.8792 -114.5106 317° Northwest 304 350 8,700 -1,200 Descending Los Angeles Center
11:10AM 35.9456 -114.5944 314° West 300 345 8,000 -420 Descending Los Angeles Center
11:11AM 35.9622 -114.6250 304° West 300 345 8,000  Level Los Angeles Center
11:11AM 35.9806 -114.6839 291° West 290 334 8,000 -900 Level Los Angeles Center
11:12AM 36.0003 -114.7336 296° West 291 335 7,100 -1,200 Descending Los Angeles Center
11:14AM 36.0656 -114.8936 297° West 289 333 4,900 -960 Descending Los Angeles Center
11:14AM 36.0719 -114.9408 280° West 238 274 4,900 -420 Level Los Angeles Center
11:15AM 36.0736 -114.9814 273° West 239 275 4,500 -900 Descending Los Angeles Center
11:16AM 36.0747 -115.0461 271° West 208 239 3,400 -1,020 Descending Los Angeles Center
11:17AM 36.0744 -115.1208 270° West 142 163 2,100 -720 Descending Los Angeles Center
11:18AM 36.0742 -115.1425 269° West 153 176 2,000 -180 Descending Los Angeles Center